KGRN

Gordon Municipal Airport

Gordon, Nebraska, USA
METAR KGRN 162155Z AUTO 20007KT 160V220 10SM SCT060 BKN070 31/17 A3009 RMK AO2 T03090168
Observed Flight Rules
Jul-16 @ 21:55 UTC (21 minutes ago) Visual Flight Rules
Wind Visibility Clouds
200° at 7 knots 10 miles
  • Scattered at 6,000' AGL
  • Broken at 7,000' AGL
Temperatures Readings
Current 31°C / 88°F
Dewpoint 17°C / 63°F
Humidity 43%
Altimeter 30.09" Hg
Pressure 1019 hPa
Elevation 1086
METAR KGRN 162155Z AUTO 20007KT 160V220 10SM SCT060 BKN070 31/17 A3009 RMK AO2 T03090168
Observed Flight Rules
Jul-16 @ 21:55 UTC
(21 minutes ago)
VFR
Wind Visibility
200° at 7 knots 10 miles
Clouds
  • Scattered at 6,000' AGL
  • Broken at 7,000' AGL
Temperature Dewpoint
31°C / 88°F 17°C / 63°F
Humidity Altimeter Pressure
43% 30.09" Hg 1019 hPa